ADDS METAR Data INFO
IDs: Format: Raw Decoded Include TAF

Data at: 0624 UTC 15 Dec 2017

KCSV 150553Z AUTO 29003KT 10SM CLR M03/M06 A2999 RMK AO2 SLP166 T10281056 10011 21028 400501028 58001
KCSV 150542Z AUTO 32005KT 10SM SCT024 M02/M05 A2999 RMK AO2 T10221050
KCSV 150453Z AUTO 28004KT 10SM OVC024 M02/M05 A3001 RMK AO2 SLP173 T10171050
KCSV 150353Z AUTO 33004KT 10SM OVC023 M01/M05 A3001 RMK AO2 SLP173 T10111050
KCSV 150253Z AUTO 34003KT 10SM OVC023 M01/M04 A3000 RMK AO2 SLP168 T10061044 51007
KCSV 150153Z AUTO 00000KT 10SM OVC024 M01/M04 A2999 RMK AO2 SLP168 T10061044
KCSV 150132Z AUTO 34004KT 10SM BKN024 M01/M04 A3000 RMK AO2 T10061044
KCSV 150053Z AUTO 34004KT 10SM FEW024 00/M04 A2999 RMK AO2 SLP168 T00001044
KCSV 142353Z AUTO 34004KT 10SM FEW024 01/M04 A2997 RMK AO2 SLP160 T00111044 10050 20011 51011
KCSV 142326Z AUTO 32006KT 10SM SCT026 01/M04 A2997 RMK AO2 T00111044
KCSV 142253Z AUTO 31006KT 10SM OVC027 02/M04 A2997 RMK AO2 SLP159 T00171039
KCSV 142234Z AUTO 28007KT 10SM BKN026 02/M04 A2997 RMK AO2 T00171039
KCSV 142153Z AUTO 29008KT 10SM CLR 03/M04 A2996 RMK AO2 SLP154 T00281039
KCSV 142053Z AUTO 29007KT 10SM CLR 04/M04 A2994 RMK AO2 SLP145 T00391039 53006
KCSV 141953Z AUTO 26008KT 10SM CLR 04/M04 A2993 RMK AO2 SLP142 T00391039
KCSV 141853Z AUTO 32007KT 10SM CLR 05/M04 A2992 RMK AO2 SLP135 T00501039
KCSV 141753Z AUTO 00000KT 10SM FEW027 03/M03 A2992 RMK AO2 SLP138 T00331033 10039 20000 50004
KCSV 141653Z AUTO 28004KT 10SM SCT020 03/M03 A2992 RMK AO2 SLP138 T00281033
KCSV 141604Z AUTO 35003KT 10SM BKN018 02/M03 A2993 RMK AO2 T00171033
KCSV 141553Z AUTO 35004KT 10SM SCT017 02/M03 A2993 RMK AO2 SLP141 T00171033
KCSV 141546Z AUTO 35007KT 320V020 10SM SCT017 02/M03 A2992 RMK AO2 T00171033
KCSV 141453Z AUTO 33006KT 10SM OVC016 02/M03 A2991 RMK AO2 SLP134 T00221028 51017
KCSV 141422Z AUTO 35009KT 10SM BKN016 02/M03 A2989 RMK AO2 T00171028
KCSV 141353Z AUTO 33007KT 10SM SCT016 01/M03 A2989 RMK AO2 SLP130 T00111033 $
KCSV 141324Z AUTO 30003KT 10SM BKN016 00/M03 A2989 RMK AO2 T00001033 $
KCSV 141307Z AUTO 32003KT 10SM SCT017 00/M03 A2988 RMK AO2 T00001033 $
KCSV 141253Z AUTO 33003KT 10SM BKN016 00/M03 A2988 RMK AO2 SLP127 T00001033 $
KCSV 141227Z AUTO 33006KT 10SM BKN018 01/M03 A2987 RMK AO2 T00061033 $
KCSV 141153Z AUTO 31005KT 10SM FEW022 01/M04 A2986 RMK AO2 SLP118 T00061039 10044 21011 53019 $
KCSV 141053Z AUTO 30005KT 10SM CLR 01/M04 A2983 RMK AO2 SLP107 T00111044 $
KCSV 140953Z AUTO 21003KT 10SM CLR 01/M06 A2981 RMK AO2 SLP103 T00061056 $
KCSV 140853Z AUTO 25005KT 10SM CLR 02/M06 A2980 RMK AO2 SLP097 T00221056 53014 $
KCSV 140753Z AUTO 26009KT 10SM CLR 03/M06 A2978 RMK AO2 SLP088 T00281056
KCSV 140653Z AUTO 26010KT 10SM CLR 04/M06 A2976 RMK AO2 SLP082 T00391056
KCSV 140553Z AUTO 26011KT 10SM FEW060 04/M06 A2976 RMK AO2 SLP081 T00441056 10056 20028 400561089 50000
KCSV 140453Z AUTO 26013KT 10SM CLR 05/M06 A2976 RMK AO2 SLP083 T00501061
KCSV 140353Z AUTO 25012G18KT 10SM CLR 06/M07 A2976 RMK AO2 SLP084 T00561067
KCSV 140253Z AUTO 25009G17KT 10SM CLR 06/M08 A2975 RMK AO2 SLP084 T00561078 51009
KCSV 140153Z AUTO 23004KT 10SM CLR 03/M09 A2975 RMK AO2 SLP087 T00331094
KCSV 140053Z AUTO VRB06KT 10SM CLR 03/M11 A2974 RMK AO2 SLP086 T00281106
KCSV 132353Z AUTO VRB06G19KT 10SM CLR 03/M11 A2973 RMK AO2 SLP080 T00331106 10056 20033 53002
KCSV 132253Z AUTO 21007G21KT 180V250 10SM CLR 04/M11 A2971 RMK AO2 SLP072 T00391111
KCSV 132153Z AUTO 19013G19KT 170V240 10SM CLR 04/M12 A2970 RMK AO2 SLP071 T00391117
KCSV 132053Z AUTO 19009G18KT 10SM SCT110 04/M12 A2972 RMK AO2 PRESFR SLP076 T00441122 56042
KCSV 131953Z AUTO 20007G15KT 170V240 10SM CLR 06/M13 A2976 RMK AO2 SLP089 T00561128
KCSV 131853Z AUTO 19010G17KT 160V230 10SM CLR 04/M14 A2979 RMK AO2 SLP100 T00441139